sensor_id;sensor_type;location;lat;lon;timestamp;pressure;altitude;pressure_sealevel;temperature;humidity
11085;BME280;5596;46.826;8.650;2023-04-04T00:01:55;96436.72;;;4.30;100.00
11085;BME280;5596;46.826;8.650;2023-04-04T00:04:25;96439.16;;;4.25;100.00
11085;BME280;5596;46.826;8.650;2023-04-04T00:06:52;96423.41;;;4.15;100.00
11085;BME280;5596;46.826;8.650;2023-04-04T00:09:19;96427.03;;;4.08;100.00
11085;BME280;5596;46.826;8.650;2023-04-04T00:11:48;96419.81;;;4.08;100.00
11085;BME280;5596;46.826;8.650;2023-04-04T00:14:15;96419.63;;;4.10;100.00
11085;BME280;5596;46.826;8.650;2023-04-04T00:16:43;96420.63;;;4.09;100.00
11085;BME280;5596;46.826;8.650;2023-04-04T00:19:09;96425.72;;;4.04;100.00
11085;BME280;5596;46.826;8.650;2023-04-04T00:21:42;96430.72;;;4.07;100.00
11085;BME280;5596;46.826;8.650;2023-04-04T00:24:09;96422.13;;;4.11;100.00
11085;BME280;5596;46.826;8.650;2023-04-04T00:26:36;96419.72;;;4.16;100.00
11085;BME280;5596;46.826;8.650;2023-04-04T00:29:05;96422.59;;;4.15;100.00
11085;BME280;5596;46.826;8.650;2023-04-04T00:31:31;96421.75;;;4.14;100.00
11085;BME280;5596;46.826;8.650;2023-04-04T00:33:58;96424.25;;;4.16;100.00
11085;BME280;5596;46.826;8.650;2023-04-04T00:36:25;96419.91;;;4.15;100.00
11085;BME280;5596;46.826;8.650;2023-04-04T00:38:52;96425.25;;;4.15;100.00
11085;BME280;5596;46.826;8.650;2023-04-04T00:41:18;96430.97;;;4.12;100.00
11085;BME280;5596;46.826;8.650;2023-04-04T00:43:45;96426.63;;;4.11;100.00
11085;BME280;5596;46.826;8.650;2023-04-04T00:46:13;96428.66;;;4.09;100.00
11085;BME280;5596;46.826;8.650;2023-04-04T00:48:44;96420.75;;;4.15;100.00
11085;BME280;5596;46.826;8.650;2023-04-04T00:51:11;96422.13;;;4.11;100.00
11085;BME280;5596;46.826;8.650;2023-04-04T00:53:38;96423.41;;;4.15;100.00
11085;BME280;5596;46.826;8.650;2023-04-04T00:56:07;96419.25;;;4.13;100.00
11085;BME280;5596;46.826;8.650;2023-04-04T00:58:34;96415.28;;;4.09;100.00
11085;BME280;5596;46.826;8.650;2023-04-04T01:01:01;96419.38;;;4.05;100.00
11085;BME280;5596;46.826;8.650;2023-04-04T01:03:30;96424.53;;;4.06;100.00
11085;BME280;5596;46.826;8.650;2023-04-04T01:05:57;96415.09;;;4.10;100.00
11085;BME280;5596;46.826;8.650;2023-04-04T01:08:25;96414.28;;;4.10;100.00
11085;BME280;5596;46.826;8.650;2023-04-04T01:10:53;96412.84;;;4.07;100.00
11085;BME280;5596;46.826;8.650;2023-04-04T01:13:21;96412.63;;;4.09;100.00
11085;BME280;5596;46.826;8.650;2023-04-04T01:15:50;96415.94;;;4.11;100.00
11085;BME280;5596;46.826;8.650;2023-04-04T01:18:18;96418.44;;;4.12;100.00
11085;BME280;5596;46.826;8.650;2023-04-04T01:20:49;96413.91;;;4.13;100.00
11085;BME280;5596;46.826;8.650;2023-04-04T01:23:18;96412.72;;;4.15;100.00
11085;BME280;5596;46.826;8.650;2023-04-04T01:25:48;96411.88;;;4.15;100.00
11085;BME280;5596;46.826;8.650;2023-04-04T01:28:15;96411.50;;;4.18;100.00
11085;BME280;5596;46.826;8.650;2023-04-04T01:30:42;96411.50;;;4.18;100.00
11085;BME280;5596;46.826;8.650;2023-04-04T01:33:12;96409.66;;;4.18;100.00
11085;BME280;5596;46.826;8.650;2023-04-04T01:35:42;96400.63;;;4.19;100.00
11085;BME280;5596;46.826;8.650;2023-04-04T01:38:17;96400.81;;;4.18;100.00
11085;BME280;5596;46.826;8.650;2023-04-04T01:40:48;96403.22;;;4.13;100.00
11085;BME280;5596;46.826;8.650;2023-04-04T01:43:17;96394.56;;;4.11;100.00
11085;BME280;5596;46.826;8.650;2023-04-04T01:45:44;96396.59;;;4.09;100.00
11085;BME280;5596;46.826;8.650;2023-04-04T01:48:12;96394.13;;;4.07;99.42
11085;BME280;5596;46.826;8.650;2023-04-04T01:50:42;96393.88;;;4.24;98.50
11085;BME280;5596;46.826;8.650;2023-04-04T01:53:09;96394.84;;;4.16;97.90
11085;BME280;5596;46.826;8.650;2023-04-04T01:55:36;96394.84;;;4.16;97.65
11085;BME280;5596;46.826;8.650;2023-04-04T01:58:04;96399.72;;;4.12;98.26
11085;BME280;5596;46.826;8.650;2023-04-04T02:00:31;96394.38;;;4.12;98.28
11085;BME280;5596;46.826;8.650;2023-04-04T02:02:58;96397.41;;;4.09;99.21
11085;BME280;5596;46.826;8.650;2023-04-04T02:05:25;96397.81;;;4.06;98.19
11085;BME280;5596;46.826;8.650;2023-04-04T02:07:53;96392.00;;;4.03;99.08
11085;BME280;5596;46.826;8.650;2023-04-04T02:10:29;96395.16;;;4.06;97.22
11085;BME280;5596;46.826;8.650;2023-04-04T02:12:56;96401.03;;;4.02;97.56
11085;BME280;5596;46.826;8.650;2023-04-04T02:15:25;96394.03;;;4.01;96.52
11085;BME280;5596;46.826;8.650;2023-04-04T02:17:53;96393.19;;;4.00;95.66
11085;BME280;5596;46.826;8.650;2023-04-04T02:20:19;96389.09;;;3.98;96.43
11085;BME280;5596;46.826;8.650;2023-04-04T02:22:50;96389.53;;;4.01;96.34
11085;BME280;5596;46.826;8.650;2023-04-04T02:25:19;96395.25;;;3.98;96.72
11085;BME280;5596;46.826;8.650;2023-04-04T02:27:46;96391.69;;;3.91;97.88
11085;BME280;5596;46.826;8.650;2023-04-04T02:30:13;96391.59;;;3.85;97.40
11085;BME280;5596;46.826;8.650;2023-04-04T02:32:42;96395.25;;;3.84;97.80
11085;BME280;5596;46.826;8.650;2023-04-04T02:35:14;96396.56;;;3.88;98.27
11085;BME280;5596;46.826;8.650;2023-04-04T02:37:43;96391.69;;;3.91;98.26
11085;BME280;5596;46.826;8.650;2023-04-04T02:40:10;96396.56;;;3.88;98.63
11085;BME280;5596;46.826;8.650;2023-04-04T02:42:40;96395.09;;;3.85;98.37
11085;BME280;5596;46.826;8.650;2023-04-04T02:45:08;96399.53;;;3.78;99.44
11085;BME280;5596;46.826;8.650;2023-04-04T02:47:35;96396.38;;;3.74;100.00
11085;BME280;5596;46.826;8.650;2023-04-04T02:50:05;96396.22;;;3.76;100.00
11085;BME280;5596;46.826;8.650;2023-04-04T02:52:32;96393.72;;;3.74;100.00
11085;BME280;5596;46.826;8.650;2023-04-04T02:55:06;96387.75;;;3.72;100.00
11085;BME280;5596;46.826;8.650;2023-04-04T02:57:36;96397.13;;;3.68;100.00
11085;BME280;5596;46.826;8.650;2023-04-04T03:00:04;96397.31;;;3.67;100.00
11085;BME280;5596;46.826;8.650;2023-04-04T03:02:31;96398.53;;;3.64;100.00
11085;BME280;5596;46.826;8.650;2023-04-04T03:04:58;96395.94;;;3.71;100.00
11085;BME280;5596;46.826;8.650;2023-04-04T03:07:26;96397.72;;;3.64;100.00
11085;BME280;5596;46.826;8.650;2023-04-04T03:09:53;96399.25;;;3.58;100.00
11085;BME280;5596;46.826;8.650;2023-04-04T03:12:20;96399.66;;;3.55;100.00
11085;BME280;5596;46.826;8.650;2023-04-04T03:14:48;96407.84;;;3.54;100.00
11085;BME280;5596;46.826;8.650;2023-04-04T03:17:16;96400.84;;;3.53;100.00
11085;BME280;5596;46.826;8.650;2023-04-04T03:19:44;96401.13;;;3.43;100.00
11085;BME280;5596;46.826;8.650;2023-04-04T03:22:12;96398.44;;;3.43;100.00
11085;BME280;5596;46.826;8.650;2023-04-04T03:24:40;96397.34;;;3.37;100.00
11085;BME280;5596;46.826;8.650;2023-04-04T03:27:07;96393.22;;;3.35;100.00
11085;BME280;5596;46.826;8.650;2023-04-04T03:29:34;96395.78;;;3.43;100.00
11085;BME280;5596;46.826;8.650;2023-04-04T03:32:01;96400.56;;;3.33;100.00
11085;BME280;5596;46.826;8.650;2023-04-04T03:34:28;96393.56;;;3.32;100.00
11085;BME280;5596;46.826;8.650;2023-04-04T03:36:56;96391.47;;;3.27;100.00
11085;BME280;5596;46.826;8.650;2023-04-04T03:39:26;96397.72;;;3.20;100.00
11085;BME280;5596;46.826;8.650;2023-04-04T03:41:55;96394.47;;;3.10;100.00
11085;BME280;5596;46.826;8.650;2023-04-04T03:44:21;96396.41;;;3.01;100.00
11085;BME280;5596;46.826;8.650;2023-04-04T03:46:48;96395.22;;;3.03;100.00
11085;BME280;5596;46.826;8.650;2023-04-04T03:49:16;96396.22;;;3.02;100.00
11085;BME280;5596;46.826;8.650;2023-04-04T03:51:43;96391.81;;;2.95;100.00
11085;BME280;5596;46.826;8.650;2023-04-04T03:54:10;96396.22;;;2.88;100.00
11085;BME280;5596;46.826;8.650;2023-04-04T03:56:37;96399.41;;;2.83;100.00
11085;BME280;5596;46.826;8.650;2023-04-04T03:59:06;96395.72;;;2.84;100.00
11085;BME280;5596;46.826;8.650;2023-04-04T04:01:33;96397.88;;;2.89;100.00
11085;BME280;5596;46.826;8.650;2023-04-04T04:04:01;96392.63;;;2.95;100.00
11085;BME280;5596;46.826;8.650;2023-04-04T04:06:28;96398.31;;;2.92;100.00
11085;BME280;5596;46.826;8.650;2023-04-04T04:08:54;96400.97;;;2.78;100.00
11085;BME280;5596;46.826;8.650;2023-04-04T04:11:22;96397.19;;;2.72;100.00
11085;BME280;5596;46.826;8.650;2023-04-04T04:13:49;96408.66;;;2.73;100.00
11085;BME280;5596;46.826;8.650;2023-04-04T04:16:18;96411.16;;;2.74;100.00
11085;BME280;5596;46.826;8.650;2023-04-04T04:18:46;96405.28;;;2.79;100.00
11085;BME280;5596;46.826;8.650;2023-04-04T04:21:21;96410.47;;;2.80;100.00
11085;BME280;5596;46.826;8.650;2023-04-04T04:23:48;96412.22;;;2.88;100.00
11085;BME280;5596;46.826;8.650;2023-04-04T04:26:15;96407.72;;;2.88;100.00
11085;BME280;5596;46.826;8.650;2023-04-04T04:28:42;96405.31;;;2.93;100.00
11085;BME280;5596;46.826;8.650;2023-04-04T04:31:13;96412.59;;;2.99;100.00
11085;BME280;5596;46.826;8.650;2023-04-04T04:33:45;96412.22;;;3.02;100.00
11085;BME280;5596;46.826;8.650;2023-04-04T04:36:13;96408.38;;;3.05;100.00
11085;BME280;5596;46.826;8.650;2023-04-04T04:39:00;96413.59;;;2.98;100.00
11085;BME280;5596;46.826;8.650;2023-04-04T04:41:30;96418.84;;;2.92;100.00
11085;BME280;5596;46.826;8.650;2023-04-04T04:43:59;96424.53;;;2.89;100.00
11085;BME280;5596;46.826;8.650;2023-04-04T04:46:26;96421.22;;;2.87;100.00
11085;BME280;5596;46.826;8.650;2023-04-04T04:48:55;96432.53;;;2.89;100.00
11085;BME280;5596;46.826;8.650;2023-04-04T04:51:28;96433.31;;;2.97;100.00
11085;BME280;5596;46.826;8.650;2023-04-04T04:53:57;96432.56;;;3.03;100.00
11085;BME280;5596;46.826;8.650;2023-04-04T04:56:26;96432.91;;;3.00;100.00
11085;BME280;5596;46.826;8.650;2023-04-04T04:58:57;96437.59;;;2.98;100.00
11085;BME280;5596;46.826;8.650;2023-04-04T05:01:26;96434.00;;;2.91;100.00
11085;BME280;5596;46.826;8.650;2023-04-04T05:03:55;96431.06;;;2.86;100.00
11085;BME280;5596;46.826;8.650;2023-04-04T05:06:30;96439.72;;;2.88;100.00
11085;BME280;5596;46.826;8.650;2023-04-04T05:08:57;96435.22;;;2.89;100.00
11085;BME280;5596;46.826;8.650;2023-04-04T05:11:28;96438.41;;;2.84;100.00
11085;BME280;5596;46.826;8.650;2023-04-04T05:13:55;96441.91;;;2.85;100.00
11085;BME280;5596;46.826;8.650;2023-04-04T05:16:25;96432.13;;;2.77;100.00
11085;BME280;5596;46.826;8.650;2023-04-04T05:18:56;96432.88;;;2.71;100.00
11085;BME280;5596;46.826;8.650;2023-04-04T05:21:23;96437.53;;;2.69;100.00
11085;BME280;5596;46.826;8.650;2023-04-04T05:23:52;96435.88;;;2.68;100.00
11085;BME280;5596;46.826;8.650;2023-04-04T05:26:22;96434.88;;;2.69;100.00
11085;BME280;5596;46.826;8.650;2023-04-04T05:28:51;96438.06;;;2.64;100.00
11085;BME280;5596;46.826;8.650;2023-04-04T05:31:19;96439.28;;;2.62;100.00
11085;BME280;5596;46.826;8.650;2023-04-04T05:33:48;96445.59;;;2.61;100.00
11085;BME280;5596;46.826;8.650;2023-04-04T05:36:27;96446.25;;;2.63;100.00
11085;BME280;5596;46.826;8.650;2023-04-04T05:38:59;96442.56;;;2.64;100.00
11085;BME280;5596;46.826;8.650;2023-04-04T05:41:30;96443.53;;;2.71;100.00
11085;BME280;5596;46.826;8.650;2023-04-04T05:44:03;96442.88;;;2.69;100.00
11085;BME280;5596;46.826;8.650;2023-04-04T05:46:31;96444.16;;;2.73;100.00
11085;BME280;5596;46.826;8.650;2023-04-04T05:48:57;96444.16;;;2.73;100.00
11085;BME280;5596;46.826;8.650;2023-04-04T05:51:27;96451.53;;;2.71;100.00
11085;BME280;5596;46.826;8.650;2023-04-04T05:54:04;96446.81;;;2.73;100.00
11085;BME280;5596;46.826;8.650;2023-04-04T05:56:32;96453.38;;;2.71;100.00
11085;BME280;5596;46.826;8.650;2023-04-04T05:59:02;96450.16;;;2.75;100.00
11085;BME280;5596;46.826;8.650;2023-04-04T06:01:33;96454.41;;;2.84;100.00
11085;BME280;5596;46.826;8.650;2023-04-04T06:04:07;96460.28;;;2.80;100.00
11085;BME280;5596;46.826;8.650;2023-04-04T06:06:36;96461.28;;;2.79;100.00
11085;BME280;5596;46.826;8.650;2023-04-04T06:09:03;96459.97;;;2.75;100.00
11085;BME280;5596;46.826;8.650;2023-04-04T06:11:30;96460.16;;;2.73;100.00
11085;BME280;5596;46.826;8.650;2023-04-04T06:14:03;96472.03;;;2.71;100.00
11085;BME280;5596;46.826;8.650;2023-04-04T06:16:30;96466.13;;;2.75;100.00
11085;BME280;5596;46.826;8.650;2023-04-04T06:18:57;96469.81;;;2.74;100.00
11085;BME280;5596;46.826;8.650;2023-04-04T06:21:23;96464.47;;;2.74;100.00
11085;BME280;5596;46.826;8.650;2023-04-04T06:23:52;96461.63;;;2.76;100.00
11085;BME280;5596;46.826;8.650;2023-04-04T06:26:19;96469.47;;;2.77;100.00
11085;BME280;5596;46.826;8.650;2023-04-04T06:28:46;96471.47;;;2.75;100.00
11085;BME280;5596;46.826;8.650;2023-04-04T06:31:17;96471.59;;;2.82;100.00
11085;BME280;5596;46.826;8.650;2023-04-04T06:33:45;96471.59;;;2.82;100.00
11085;BME280;5596;46.826;8.650;2023-04-04T06:36:14;96479.41;;;2.83;100.00
11085;BME280;5596;46.826;8.650;2023-04-04T06:38:40;96475.91;;;2.83;100.00
11085;BME280;5596;46.826;8.650;2023-04-04T06:41:16;96480.06;;;2.85;100.00
11085;BME280;5596;46.826;8.650;2023-04-04T06:43:45;96483.66;;;2.92;100.00
11085;BME280;5596;46.826;8.650;2023-04-04T06:46:12;96485.69;;;2.90;100.00
11085;BME280;5596;46.826;8.650;2023-04-04T06:48:39;96482.94;;;2.98;100.00
11085;BME280;5596;46.826;8.650;2023-04-04T06:51:06;96482.59;;;3.01;100.00
11085;BME280;5596;46.826;8.650;2023-04-04T06:53:35;96480.94;;;3.00;100.00
11085;BME280;5596;46.826;8.650;2023-04-04T06:56:01;96481.50;;;2.96;100.00
11085;BME280;5596;46.826;8.650;2023-04-04T06:58:30;96478.91;;;3.02;100.00
11085;BME280;5596;46.826;8.650;2023-04-04T07:01:00;96479.84;;;3.10;100.00
11085;BME280;5596;46.826;8.650;2023-04-04T07:03:26;96480.88;;;3.09;100.00
11085;BME280;5596;46.826;8.650;2023-04-04T07:05:53;96487.84;;;3.10;100.00
11085;BME280;5596;46.826;8.650;2023-04-04T07:08:20;96487.50;;;3.13;100.00
11085;BME280;5596;46.826;8.650;2023-04-04T07:10:47;96493.53;;;3.07;100.00
11085;BME280;5596;46.826;8.650;2023-04-04T07:13:13;96489.34;;;3.12;100.00
11085;BME280;5596;46.826;8.650;2023-04-04T07:15:45;96488.44;;;3.20;100.00
11085;BME280;5596;46.826;8.650;2023-04-04T07:18:14;96489.78;;;3.16;100.00
11085;BME280;5596;46.826;8.650;2023-04-04T07:20:41;96488.97;;;3.15;100.00
11085;BME280;5596;46.826;8.650;2023-04-04T07:23:08;96488.63;;;3.18;100.00
11085;BME280;5596;46.826;8.650;2023-04-04T07:25:35;96492.28;;;3.17;100.00
11085;BME280;5596;46.826;8.650;2023-04-04T07:28:02;96488.78;;;3.17;100.00
11085;BME280;5596;46.826;8.650;2023-04-04T07:30:29;96489.78;;;3.16;100.00
11085;BME280;5596;46.826;8.650;2023-04-04T07:32:58;96486.78;;;3.19;100.00
11085;BME280;5596;46.826;8.650;2023-04-04T07:35:25;96479.34;;;3.29;100.00
11085;BME280;5596;46.826;8.650;2023-04-04T07:37:53;96483.69;;;3.30;100.00
11085;BME280;5596;46.826;8.650;2023-04-04T07:40:19;96479.16;;;3.30;100.00
11085;BME280;5596;46.826;8.650;2023-04-04T07:42:47;96484.03;;;3.41;100.00
11085;BME280;5596;46.826;8.650;2023-04-04T07:45:15;96487.56;;;3.57;100.00
11085;BME280;5596;46.826;8.650;2023-04-04T07:47:42;96488.03;;;3.60;100.00
11085;BME280;5596;46.826;8.650;2023-04-04T07:50:11;96485.75;;;3.57;100.00
11085;BME280;5596;46.826;8.650;2023-04-04T07:52:39;96486.00;;;3.62;100.00
11085;BME280;5596;46.826;8.650;2023-04-04T07:55:06;96485.19;;;3.62;100.00
11085;BME280;5596;46.826;8.650;2023-04-04T07:57:32;96482.97;;;3.65;100.00
11085;BME280;5596;46.826;8.650;2023-04-04T08:00:02;96496.22;;;3.59;100.00
11085;BME280;5596;46.826;8.650;2023-04-04T08:02:38;96484.25;;;3.55;100.00
11085;BME280;5596;46.826;8.650;2023-04-04T08:05:06;96481.84;;;3.60;100.00
11085;BME280;5596;46.826;8.650;2023-04-04T08:07:34;96486.44;;;3.66;100.00
11085;BME280;5596;46.826;8.650;2023-04-04T08:10:01;96480.13;;;3.82;100.00
11085;BME280;5596;46.826;8.650;2023-04-04T08:12:28;96486.72;;;4.00;100.00
11085;BME280;5596;46.826;8.650;2023-04-04T08:14:54;96480.84;;;4.41;100.00
11085;BME280;5596;46.826;8.650;2023-04-04T08:17:21;96477.25;;;4.70;97.01
11085;BME280;5596;46.826;8.650;2023-04-04T08:19:48;96482.59;;;4.91;95.58
11085;BME280;5596;46.826;8.650;2023-04-04T08:22:15;96476.63;;;5.10;93.95
11085;BME280;5596;46.826;8.650;2023-04-04T08:24:44;96475.22;;;5.42;92.89
11085;BME280;5596;46.826;8.650;2023-04-04T08:27:10;96482.53;;;5.61;90.86
11085;BME280;5596;46.826;8.650;2023-04-04T08:29:39;96488.38;;;5.71;90.22
11085;BME280;5596;46.826;8.650;2023-04-04T08:32:06;96486.63;;;5.85;90.73
11085;BME280;5596;46.826;8.650;2023-04-04T08:34:33;96491.66;;;5.95;88.38
11085;BME280;5596;46.826;8.650;2023-04-04T08:37:00;96496.56;;;5.91;87.83
11085;BME280;5596;46.826;8.650;2023-04-04T08:39:26;96487.06;;;5.89;90.43
11085;BME280;5596;46.826;8.650;2023-04-04T08:41:56;96489.47;;;6.12;88.98
11085;BME280;5596;46.826;8.650;2023-04-04T08:44:25;96494.88;;;6.18;86.33
11085;BME280;5596;46.826;8.650;2023-04-04T08:46:53;96493.66;;;6.27;86.04
11085;BME280;5596;46.826;8.650;2023-04-04T08:49:21;96489.34;;;6.33;85.06
11085;BME280;5596;46.826;8.650;2023-04-04T08:51:49;96502.13;;;6.31;84.70
11085;BME280;5596;46.826;8.650;2023-04-04T08:54:17;96498.56;;;6.17;85.44
11085;BME280;5596;46.826;8.650;2023-04-04T08:56:46;96486.91;;;6.38;85.17
11085;BME280;5596;46.826;8.650;2023-04-04T08:59:14;96491.84;;;6.34;86.33
11085;BME280;5596;46.826;8.650;2023-04-04T09:01:43;96493.13;;;6.45;87.25
11085;BME280;5596;46.826;8.650;2023-04-04T09:04:09;96491.94;;;6.61;85.95
11085;BME280;5596;46.826;8.650;2023-04-04T09:06:36;96490.34;;;6.93;83.31
11085;BME280;5596;46.826;8.650;2023-04-04T09:09:05;96482.94;;;6.95;80.90
11085;BME280;5596;46.826;8.650;2023-04-04T09:11:32;96489.06;;;6.62;83.04
11085;BME280;5596;46.826;8.650;2023-04-04T09:13:59;96486.91;;;6.38;85.12
11085;BME280;5596;46.826;8.650;2023-04-04T09:16:30;96479.94;;;6.57;84.82
11085;BME280;5596;46.826;8.650;2023-04-04T09:18:57;96488.25;;;6.75;81.92
11085;BME280;5596;46.826;8.650;2023-04-04T09:21:23;96473.38;;;6.72;81.60
11085;BME280;5596;46.826;8.650;2023-04-04T09:23:57;96477.28;;;6.63;83.21
11085;BME280;5596;46.826;8.650;2023-04-04T09:26:24;96481.03;;;6.82;80.34
11085;BME280;5596;46.826;8.650;2023-04-04T09:28:51;96480.88;;;7.10;81.05
11085;BME280;5596;46.826;8.650;2023-04-04T09:31:17;96479.03;;;7.04;79.73
11085;BME280;5596;46.826;8.650;2023-04-04T09:33:45;96471.56;;;7.32;80.88
11085;BME280;5596;46.826;8.650;2023-04-04T09:36:14;96477.59;;;7.47;77.97
11085;BME280;5596;46.826;8.650;2023-04-04T09:38:40;96469.72;;;7.52;76.46
11085;BME280;5596;46.826;8.650;2023-04-04T09:41:08;96470.53;;;7.59;75.27
11085;BME280;5596;46.826;8.650;2023-04-04T09:43:35;96469.69;;;7.59;74.91
11085;BME280;5596;46.826;8.650;2023-04-04T09:46:05;96473.88;;;7.48;75.26
11085;BME280;5596;46.826;8.650;2023-04-04T09:48:32;96472.22;;;7.47;75.42
11085;BME280;5596;46.826;8.650;2023-04-04T09:51:04;96467.22;;;7.51;76.49
11085;BME280;5596;46.826;8.650;2023-04-04T09:53:32;96468.44;;;7.75;76.98
11085;BME280;5596;46.826;8.650;2023-04-04T09:55:59;96461.84;;;7.71;74.28
11085;BME280;5596;46.826;8.650;2023-04-04T09:58:27;96465.13;;;7.86;75.05
11085;BME280;5596;46.826;8.650;2023-04-04T10:00:57;96469.41;;;8.00;74.89
11085;BME280;5596;46.826;8.650;2023-04-04T10:03:25;96473.72;;;8.14;72.22
11085;BME280;5596;46.826;8.650;2023-04-04T10:05:55;96466.94;;;8.05;71.46
11085;BME280;5596;46.826;8.650;2023-04-04T10:08:25;96469.81;;;8.10;72.36
11085;BME280;5596;46.826;8.650;2023-04-04T10:10:55;96473.09;;;8.19;70.19
11085;BME280;5596;46.826;8.650;2023-04-04T10:13:22;96458.84;;;8.12;74.47
11085;BME280;5596;46.826;8.650;2023-04-04T10:15:50;96463.41;;;8.05;70.17
11085;BME280;5596;46.826;8.650;2023-04-04T10:18:18;96469.13;;;8.28;70.50
11085;BME280;5596;46.826;8.650;2023-04-04T10:20:45;96456.66;;;8.47;68.61
11085;BME280;5596;46.826;8.650;2023-04-04T10:23:14;96459.34;;;8.47;69.85
11085;BME280;5596;46.826;8.650;2023-04-04T10:25:43;96467.25;;;8.42;68.18
11085;BME280;5596;46.826;8.650;2023-04-04T10:28:10;96466.19;;;8.43;67.89
11085;BME280;5596;46.826;8.650;2023-04-04T10:30:39;96462.03;;;8.47;68.51
11085;BME280;5596;46.826;8.650;2023-04-04T10:33:06;96457.56;;;8.72;70.57
11085;BME280;5596;46.826;8.650;2023-04-04T10:35:39;96456.25;;;8.50;67.58
11085;BME280;5596;46.826;8.650;2023-04-04T10:38:08;96462.78;;;8.67;68.30
11085;BME280;5596;46.826;8.650;2023-04-04T10:40:35;96465.28;;;8.62;68.21
11085;BME280;5596;46.826;8.650;2023-04-04T10:43:05;96463.16;;;8.70;68.26
11085;BME280;5596;46.826;8.650;2023-04-04T10:45:32;96444.25;;;8.77;67.98
11085;BME280;5596;46.826;8.650;2023-04-04T10:48:02;96453.94;;;8.91;67.37
11085;BME280;5596;46.826;8.650;2023-04-04T10:50:29;96445.75;;;8.73;65.27
11085;BME280;5596;46.826;8.650;2023-04-04T10:52:58;96446.53;;;8.80;66.73
11085;BME280;5596;46.826;8.650;2023-04-04T10:55:27;96437.75;;;8.60;67.68
11085;BME280;5596;46.826;8.650;2023-04-04T10:57:56;96438.19;;;8.88;68.10
11085;BME280;5596;46.826;8.650;2023-04-04T11:00:24;96438.56;;;8.98;66.63
11085;BME280;5596;46.826;8.650;2023-04-04T11:02:53;96440.63;;;8.96;68.24
11085;BME280;5596;46.826;8.650;2023-04-04T11:05:21;96428.72;;;8.79;66.30
11085;BME280;5596;46.826;8.650;2023-04-04T11:07:57;96438.09;;;8.70;67.91
11085;BME280;5596;46.826;8.650;2023-04-04T11:10:25;96434.56;;;8.76;68.33
11085;BME280;5596;46.826;8.650;2023-04-04T11:12:52;96438.31;;;8.75;67.88
11085;BME280;5596;46.826;8.650;2023-04-04T11:15:21;96429.72;;;8.85;67.39
11085;BME280;5596;46.826;8.650;2023-04-04T11:17:54;96427.25;;;9.15;68.31
11085;BME280;5596;46.826;8.650;2023-04-04T11:20:22;96434.34;;;9.09;65.74
11085;BME280;5596;46.826;8.650;2023-04-04T11:22:49;96436.50;;;8.94;67.36
11085;BME280;5596;46.826;8.650;2023-04-04T11:28:08;96426.03;;;8.79;65.46
11085;BME280;5596;46.826;8.650;2023-04-04T11:30:40;96429.59;;;8.73;66.11
11085;BME280;5596;46.826;8.650;2023-04-04T11:33:15;96432.75;;;9.01;66.78
11085;BME280;5596;46.826;8.650;2023-04-04T11:35:51;96425.66;;;9.07;65.25
11085;BME280;5596;46.826;8.650;2023-04-04T11:38:18;96427.00;;;8.91;65.43
11085;BME280;5596;46.826;8.650;2023-04-04T11:40:51;96427.53;;;8.68;66.82
11085;BME280;5596;46.826;8.650;2023-04-04T11:43:18;96429.91;;;8.90;67.91
11085;BME280;5596;46.826;8.650;2023-04-04T11:45:45;96424.84;;;8.75;64.98
11085;BME280;5596;46.826;8.650;2023-04-04T11:48:15;96417.97;;;8.79;65.29
11085;BME280;5596;46.826;8.650;2023-04-04T11:50:44;96426.84;;;8.48;66.45
11085;BME280;5596;46.826;8.650;2023-04-04T11:53:13;96424.28;;;8.60;66.04
11085;BME280;5596;46.826;8.650;2023-04-04T11:55:42;96429.53;;;8.48;65.60
11085;BME280;5596;46.826;8.650;2023-04-04T11:58:11;96423.59;;;8.40;66.91
11085;BME280;5596;46.826;8.650;2023-04-04T12:00:38;96418.63;;;8.68;66.92
11085;BME280;5596;46.826;8.650;2023-04-04T12:03:06;96424.69;;;8.63;66.95
11085;BME280;5596;46.826;8.650;2023-04-04T12:05:37;96425.81;;;8.81;66.71
11085;BME280;5596;46.826;8.650;2023-04-04T12:08:05;96428.66;;;8.92;66.75
11085;BME280;5596;46.826;8.650;2023-04-04T12:10:33;96424.03;;;8.99;65.34
11085;BME280;5596;46.826;8.650;2023-04-04T12:13:00;96426.25;;;9.09;65.90
11085;BME280;5596;46.826;8.650;2023-04-04T12:15:27;96438.16;;;8.95;63.80
11085;BME280;5596;46.826;8.650;2023-04-04T12:17:56;96421.63;;;8.91;65.44
11085;BME280;5596;46.826;8.650;2023-04-04T12:20:22;96426.06;;;9.04;66.71
11085;BME280;5596;46.826;8.650;2023-04-04T12:22:51;96423.94;;;9.13;65.87
11085;BME280;5596;46.826;8.650;2023-04-04T12:25:19;96439.03;;;8.89;64.23
11085;BME280;5596;46.826;8.650;2023-04-04T12:27:46;96424.81;;;9.06;65.36
11085;BME280;5596;46.826;8.650;2023-04-04T12:30:14;96424.81;;;9.31;65.74
11085;BME280;5596;46.826;8.650;2023-04-04T12:32:41;96432.50;;;9.28;63.23
11085;BME280;5596;46.826;8.650;2023-04-04T12:35:09;96419.91;;;9.46;65.14
11085;BME280;5596;46.826;8.650;2023-04-04T12:37:36;96416.34;;;9.71;64.06
11085;BME280;5596;46.826;8.650;2023-04-04T12:40:04;96419.59;;;9.79;63.69
11085;BME280;5596;46.826;8.650;2023-04-04T12:42:33;96418.75;;;9.61;62.74
11085;BME280;5596;46.826;8.650;2023-04-04T12:45:00;96415.97;;;9.49;63.93
11085;BME280;5596;46.826;8.650;2023-04-04T12:47:29;96419.06;;;9.53;62.32
11085;BME280;5596;46.826;8.650;2023-04-04T12:49:56;96412.72;;;9.40;63.05
11085;BME280;5596;46.826;8.650;2023-04-04T12:52:26;96413.88;;;9.51;62.95
11085;BME280;5596;46.826;8.650;2023-04-04T12:54:56;96412.16;;;9.57;63.90
11085;BME280;5596;46.826;8.650;2023-04-04T12:57:25;96417.31;;;9.58;62.31
11085;BME280;5596;46.826;8.650;2023-04-04T12:59:53;96406.22;;;9.48;63.55
11085;BME280;5596;46.826;8.650;2023-04-04T13:02:20;96418.38;;;9.57;64.49
11085;BME280;5596;46.826;8.650;2023-04-04T13:04:51;96416.59;;;9.44;61.20
11085;BME280;5596;46.826;8.650;2023-04-04T13:07:23;96420.91;;;9.70;61.81
11085;BME280;5596;46.826;8.650;2023-04-04T13:09:51;96414.84;;;9.57;61.79
11085;BME280;5596;46.826;8.650;2023-04-04T13:12:18;96411.84;;;9.65;61.89
11085;BME280;5596;46.826;8.650;2023-04-04T13:14:57;96411.94;;;9.58;62.38
11085;BME280;5596;46.826;8.650;2023-04-04T13:17:24;96411.50;;;9.79;61.01
11085;BME280;5596;46.826;8.650;2023-04-04T13:19:51;96416.50;;;9.58;61.77
11085;BME280;5596;46.826;8.650;2023-04-04T13:22:18;96413.59;;;9.59;61.86
11085;BME280;5596;46.826;8.650;2023-04-04T13:24:46;96406.56;;;9.76;61.37